sensor_id;sensor_type;location;lat;lon;timestamp;pressure;altitude;pressure_sealevel;temperature;humidity
14242;BME280;7205;50.864;12.766;2024-03-23T00:54:46;96802.47;;;12.04;88.49
14242;BME280;7205;50.864;12.766;2024-03-23T00:57:12;96802.84;;;12.07;87.96
14242;BME280;7205;50.864;12.766;2024-03-23T00:59:38;96800.22;;;12.07;87.81
14242;BME280;7205;50.864;12.766;2024-03-23T01:02:04;96791.28;;;12.08;88.26
14242;BME280;7205;50.864;12.766;2024-03-23T01:04:31;96783.75;;;12.12;87.98
14242;BME280;7205;50.864;12.766;2024-03-23T01:06:58;96777.41;;;12.13;87.46
14242;BME280;7205;50.864;12.766;2024-03-23T01:09:24;96783.53;;;12.13;87.52
14242;BME280;7205;50.864;12.766;2024-03-23T01:11:50;96777.00;;;12.09;87.52
14242;BME280;7205;50.864;12.766;2024-03-23T01:14:16;96765.81;;;12.07;87.41
14242;BME280;7205;50.864;12.766;2024-03-23T01:16:42;96773.75;;;12.07;87.22
14242;BME280;7205;50.864;12.766;2024-03-23T01:19:09;96764.81;;;12.02;87.38
14242;BME280;7205;50.864;12.766;2024-03-23T01:21:34;96755.44;;;11.99;87.25
14242;BME280;7205;50.864;12.766;2024-03-23T01:24:02;96759.94;;;11.92;87.06
14242;BME280;7205;50.864;12.766;2024-03-23T01:26:28;96756.09;;;11.88;87.16
14242;BME280;7205;50.864;12.766;2024-03-23T01:28:54;96748.56;;;11.79;87.78
14242;BME280;7205;50.864;12.766;2024-03-23T01:31:20;96748.75;;;11.77;87.89
14242;BME280;7205;50.864;12.766;2024-03-23T01:33:47;96739.81;;;11.72;88.80
14242;BME280;7205;50.864;12.766;2024-03-23T01:36:12;96746.72;;;11.73;89.31
14242;BME280;7205;50.864;12.766;2024-03-23T01:38:39;96734.94;;;11.69;89.60
14242;BME280;7205;50.864;12.766;2024-03-23T01:41:06;96725.38;;;11.68;90.11
14242;BME280;7205;50.864;12.766;2024-03-23T01:43:33;96725.78;;;11.65;90.63
14242;BME280;7205;50.864;12.766;2024-03-23T01:45:58;96711.31;;;11.61;90.98
14242;BME280;7205;50.864;12.766;2024-03-23T01:48:25;96711.09;;;11.56;90.37
14242;BME280;7205;50.864;12.766;2024-03-23T01:50:51;96710.69;;;11.46;90.73
14242;BME280;7205;50.864;12.766;2024-03-23T01:53:17;96697.28;;;11.34;91.08
14242;BME280;7205;50.864;12.766;2024-03-23T01:55:45;96703.19;;;11.23;91.32
14242;BME280;7205;50.864;12.766;2024-03-23T01:58:13;96705.59;;;11.11;91.76
14242;BME280;7205;50.864;12.766;2024-03-23T02:00:38;96700.69;;;11.02;92.75
14242;BME280;7205;50.864;12.766;2024-03-23T02:03:23;96699.88;;;10.88;93.75
14242;BME280;7205;50.864;12.766;2024-03-23T02:05:49;96698.44;;;10.79;95.76
14242;BME280;7205;50.864;12.766;2024-03-23T02:08:17;96700.22;;;10.72;96.84
14242;BME280;7205;50.864;12.766;2024-03-23T02:10:43;96700.63;;;10.69;99.21
14242;BME280;7205;50.864;12.766;2024-03-23T02:13:09;96703.06;;;10.71;100.00
14242;BME280;7205;50.864;12.766;2024-03-23T02:15:38;96714.06;;;10.74;100.00
14242;BME280;7205;50.864;12.766;2024-03-23T02:18:07;96708.16;;;10.79;100.00
14242;BME280;7205;50.864;12.766;2024-03-23T02:20:33;96704.13;;;10.83;100.00
14242;BME280;7205;50.864;12.766;2024-03-23T02:23:00;96703.53;;;10.87;100.00
14242;BME280;7205;50.864;12.766;2024-03-23T02:25:26;96691.16;;;10.94;100.00
14242;BME280;7205;50.864;12.766;2024-03-23T02:27:53;96684.84;;;11.02;100.00
14242;BME280;7205;50.864;12.766;2024-03-23T02:30:19;96669.03;;;11.08;100.00
14242;BME280;7205;50.864;12.766;2024-03-23T02:32:46;96664.94;;;11.12;100.00
14242;BME280;7205;50.864;12.766;2024-03-23T02:35:12;96664.34;;;11.17;100.00
14242;BME280;7205;50.864;12.766;2024-03-23T02:37:38;96664.53;;;11.22;100.00
14242;BME280;7205;50.864;12.766;2024-03-23T02:40:06;96659.47;;;11.27;100.00
14242;BME280;7205;50.864;12.766;2024-03-23T02:42:33;96662.50;;;11.30;100.00
14242;BME280;7205;50.864;12.766;2024-03-23T02:44:59;96655.00;;;11.34;100.00
14242;BME280;7205;50.864;12.766;2024-03-23T02:47:25;96654.41;;;11.38;100.00
14242;BME280;7205;50.864;12.766;2024-03-23T02:49:51;96649.13;;;11.38;100.00
14242;BME280;7205;50.864;12.766;2024-03-23T02:52:18;96646.06;;;11.42;100.00
14242;BME280;7205;50.864;12.766;2024-03-23T02:54:43;96641.38;;;11.44;100.00
14242;BME280;7205;50.864;12.766;2024-03-23T02:57:12;96643.63;;;11.47;100.00
14242;BME280;7205;50.864;12.766;2024-03-23T02:59:37;96641.59;;;11.49;100.00
14242;BME280;7205;50.864;12.766;2024-03-23T03:02:04;96636.09;;;11.50;100.00
14242;BME280;7205;50.864;12.766;2024-03-23T03:04:30;96641.97;;;11.52;100.00
14242;BME280;7205;50.864;12.766;2024-03-23T03:06:57;96632.41;;;11.51;100.00
14242;BME280;7205;50.864;12.766;2024-03-23T03:09:23;96634.22;;;11.51;100.00
14242;BME280;7205;50.864;12.766;2024-03-23T03:11:50;96624.88;;;11.55;100.00
14242;BME280;7205;50.864;12.766;2024-03-23T03:14:17;96618.78;;;11.54;100.00
14242;BME280;7205;50.864;12.766;2024-03-23T03:16:44;96608.81;;;11.56;100.00
14242;BME280;7205;50.864;12.766;2024-03-23T03:19:09;96605.13;;;11.57;100.00
14242;BME280;7205;50.864;12.766;2024-03-23T03:21:37;96603.53;;;11.56;100.00
14242;BME280;7205;50.864;12.766;2024-03-23T03:24:04;96606.16;;;11.56;100.00
14242;BME280;7205;50.864;12.766;2024-03-23T03:26:30;96600.88;;;11.56;100.00
14242;BME280;7205;50.864;12.766;2024-03-23T03:28:56;96606.59;;;11.53;100.00
14242;BME280;7205;50.864;12.766;2024-03-23T03:31:24;96609.66;;;11.50;100.00
14242;BME280;7205;50.864;12.766;2024-03-23T03:33:50;96604.38;;;11.50;100.00
14242;BME280;7205;50.864;12.766;2024-03-23T03:36:17;96612.09;;;11.52;100.00
14242;BME280;7205;50.864;12.766;2024-03-23T03:38:42;96611.88;;;11.53;100.00
14242;BME280;7205;50.864;12.766;2024-03-23T03:41:09;96608.00;;;11.56;100.00
14242;BME280;7205;50.864;12.766;2024-03-23T03:43:35;96591.13;;;11.57;100.00
14242;BME280;7205;50.864;12.766;2024-03-23T03:46:01;96585.84;;;11.57;100.00
14242;BME280;7205;50.864;12.766;2024-03-23T03:48:29;96566.13;;;11.53;100.00
14242;BME280;7205;50.864;12.766;2024-03-23T03:50:56;96562.28;;;11.49;100.00
14242;BME280;7205;50.864;12.766;2024-03-23T03:53:22;96558.41;;;11.45;100.00
14242;BME280;7205;50.864;12.766;2024-03-23T03:55:48;96549.88;;;11.43;100.00
14242;BME280;7205;50.864;12.766;2024-03-23T03:58:14;96546.84;;;11.39;100.00
14242;BME280;7205;50.864;12.766;2024-03-23T04:00:41;96549.88;;;11.36;100.00
14242;BME280;7205;50.864;12.766;2024-03-23T04:03:06;96543.00;;;11.35;100.00
14242;BME280;7205;50.864;12.766;2024-03-23T04:05:34;96524.88;;;11.32;100.00
14242;BME280;7205;50.864;12.766;2024-03-23T04:08:00;96506.81;;;11.29;100.00
14242;BME280;7205;50.864;12.766;2024-03-23T04:10:26;96500.13;;;11.26;100.00
14242;BME280;7205;50.864;12.766;2024-03-23T04:12:52;96487.13;;;11.25;100.00
14242;BME280;7205;50.864;12.766;2024-03-23T04:15:19;96490.16;;;11.22;100.00
14242;BME280;7205;50.864;12.766;2024-03-23T04:17:44;96491.81;;;11.16;100.00
14242;BME280;7205;50.864;12.766;2024-03-23T04:20:11;96496.69;;;11.13;100.00
14242;BME280;7205;50.864;12.766;2024-03-23T04:22:40;96498.72;;;11.11;100.00
14242;BME280;7205;50.864;12.766;2024-03-23T04:25:07;96498.72;;;11.11;100.00
14242;BME280;7205;50.864;12.766;2024-03-23T04:27:32;96492.63;;;11.10;100.00
14242;BME280;7205;50.864;12.766;2024-03-23T04:29:59;96494.84;;;11.07;100.00
14242;BME280;7205;50.864;12.766;2024-03-23T04:32:26;96486.75;;;11.02;100.00
14242;BME280;7205;50.864;12.766;2024-03-23T04:34:54;96481.25;;;10.97;100.00
14242;BME280;7205;50.864;12.766;2024-03-23T04:37:19;96484.94;;;10.96;100.00
14242;BME280;7205;50.864;12.766;2024-03-23T04:39:47;96479.03;;;10.94;100.00
14242;BME280;7205;50.864;12.766;2024-03-23T04:42:15;96476.59;;;10.92;100.00
14242;BME280;7205;50.864;12.766;2024-03-23T04:44:41;96468.06;;;10.90;100.00
14242;BME280;7205;50.864;12.766;2024-03-23T04:47:08;96439.84;;;10.91;100.00
14242;BME280;7205;50.864;12.766;2024-03-23T04:49:38;96428.47;;;10.90;100.00
14242;BME280;7205;50.864;12.766;2024-03-23T04:52:05;96421.78;;;10.88;100.00
14242;BME280;7205;50.864;12.766;2024-03-23T04:54:32;96436.41;;;10.84;100.00
14242;BME280;7205;50.864;12.766;2024-03-23T04:57:00;96432.75;;;10.85;100.00
14242;BME280;7205;50.864;12.766;2024-03-23T04:59:26;96418.13;;;10.82;100.00
14242;BME280;7205;50.864;12.766;2024-03-23T05:01:52;96402.72;;;10.79;100.00
14242;BME280;7205;50.864;12.766;2024-03-23T05:04:18;96421.59;;;10.76;100.00
14242;BME280;7205;50.864;12.766;2024-03-23T05:06:44;96417.31;;;10.75;100.00
14242;BME280;7205;50.864;12.766;2024-03-23T05:09:10;96409.63;;;10.74;100.00
14242;BME280;7205;50.864;12.766;2024-03-23T05:11:38;96407.38;;;10.77;100.00
14242;BME280;7205;50.864;12.766;2024-03-23T05:14:05;96408.19;;;10.78;100.00
14242;BME280;7205;50.864;12.766;2024-03-23T05:16:32;96395.81;;;10.78;100.00
14242;BME280;7205;50.864;12.766;2024-03-23T05:18:58;96389.72;;;10.78;100.00
14242;BME280;7205;50.864;12.766;2024-03-23T05:21:24;96379.16;;;10.78;100.00
14242;BME280;7205;50.864;12.766;2024-03-23T05:23:50;96373.66;;;10.79;100.00
14242;BME280;7205;50.864;12.766;2024-03-23T05:26:17;96376.69;;;10.83;100.00
14242;BME280;7205;50.864;12.766;2024-03-23T05:28:43;96380.16;;;10.83;100.00
14242;BME280;7205;50.864;12.766;2024-03-23T05:31:11;96375.25;;;10.87;100.00
14242;BME280;7205;50.864;12.766;2024-03-23T05:33:37;96386.22;;;10.90;100.00
14242;BME280;7205;50.864;12.766;2024-03-23T05:36:05;96389.84;;;10.96;100.00
14242;BME280;7205;50.864;12.766;2024-03-23T05:38:31;96376.03;;;11.00;100.00
14242;BME280;7205;50.864;12.766;2024-03-23T05:40:59;96352.03;;;11.02;100.00
14242;BME280;7205;50.864;12.766;2024-03-23T05:43:25;96352.44;;;11.05;100.00
14242;BME280;7205;50.864;12.766;2024-03-23T05:45:54;96343.09;;;11.09;100.00
14242;BME280;7205;50.864;12.766;2024-03-23T05:48:21;96338.63;;;11.10;100.00
14242;BME280;7205;50.864;12.766;2024-03-23T05:50:48;96321.34;;;11.07;100.00
14242;BME280;7205;50.864;12.766;2024-03-23T05:53:14;96318.31;;;11.04;100.00
14242;BME280;7205;50.864;12.766;2024-03-23T05:55:41;96320.56;;;11.00;100.00
14242;BME280;7205;50.864;12.766;2024-03-23T05:58:07;96310.00;;;11.00;100.00
14242;BME280;7205;50.864;12.766;2024-03-23T06:00:33;96307.13;;;11.02;100.00
14242;BME280;7205;50.864;12.766;2024-03-23T06:02:59;96310.16;;;11.05;100.00
14242;BME280;7205;50.864;12.766;2024-03-23T06:05:27;96313.63;;;11.06;100.00
14242;BME280;7205;50.864;12.766;2024-03-23T06:07:53;96303.47;;;11.09;100.00
14242;BME280;7205;50.864;12.766;2024-03-23T06:10:19;96302.81;;;11.14;100.00
14242;BME280;7205;50.864;12.766;2024-03-23T06:12:45;96279.22;;;11.19;100.00
14242;BME280;7205;50.864;12.766;2024-03-23T06:15:12;96274.53;;;11.21;100.00
14242;BME280;7205;50.864;12.766;2024-03-23T06:17:38;96270.06;;;11.21;100.00
14242;BME280;7205;50.864;12.766;2024-03-23T06:20:05;96275.13;;;11.23;100.00
14242;BME280;7205;50.864;12.766;2024-03-23T06:22:32;96265.38;;;11.23;100.00
14242;BME280;7205;50.864;12.766;2024-03-23T06:24:59;96270.84;;;11.28;100.00
14242;BME280;7205;50.864;12.766;2024-03-23T06:27:25;96282.00;;;11.30;100.00
14242;BME280;7205;50.864;12.766;2024-03-23T06:29:52;96286.66;;;11.35;100.00
14242;BME280;7205;50.864;12.766;2024-03-23T06:32:17;96301.69;;;11.34;100.00
14242;BME280;7205;50.864;12.766;2024-03-23T06:34:44;96286.06;;;11.33;100.00
14242;BME280;7205;50.864;12.766;2024-03-23T06:37:10;96277.53;;;11.31;100.00
14242;BME280;7205;50.864;12.766;2024-03-23T06:39:38;96267.16;;;11.29;100.00
14242;BME280;7205;50.864;12.766;2024-03-23T06:42:05;96249.28;;;11.31;100.00
14242;BME280;7205;50.864;12.766;2024-03-23T06:44:31;96239.09;;;11.35;100.00
14242;BME280;7205;50.864;12.766;2024-03-23T06:46:57;96233.59;;;11.36;100.00
14242;BME280;7205;50.864;12.766;2024-03-23T06:49:24;96226.63;;;11.42;100.00
14242;BME280;7205;50.864;12.766;2024-03-23T06:51:49;96227.38;;;11.49;100.00
14242;BME280;7205;50.864;12.766;2024-03-23T06:54:16;96224.28;;;11.59;100.00
14242;BME280;7205;50.864;12.766;2024-03-23T06:56:43;96215.66;;;11.70;100.00
14242;BME280;7205;50.864;12.766;2024-03-23T06:59:10;96214.38;;;11.79;100.00
14242;BME280;7205;50.864;12.766;2024-03-23T07:01:36;96219.97;;;11.89;100.00
14242;BME280;7205;50.864;12.766;2024-03-23T07:04:03;96209.88;;;11.97;100.00
14242;BME280;7205;50.864;12.766;2024-03-23T07:06:30;96209.63;;;12.05;100.00
14242;BME280;7205;50.864;12.766;2024-03-23T07:08:57;96201.97;;;12.15;100.00
14242;BME280;7205;50.864;12.766;2024-03-23T07:11:23;96204.09;;;12.25;100.00
14242;BME280;7205;50.864;12.766;2024-03-23T07:13:58;96197.66;;;12.39;100.00
14242;BME280;7205;50.864;12.766;2024-03-23T07:16:26;96182.25;;;12.47;100.00
14242;BME280;7205;50.864;12.766;2024-03-23T07:18:52;96178.03;;;12.58;100.00
14242;BME280;7205;50.864;12.766;2024-03-23T07:21:18;96176.25;;;12.70;100.00
14242;BME280;7205;50.864;12.766;2024-03-23T07:23:44;96165.72;;;12.82;100.00
14242;BME280;7205;50.864;12.766;2024-03-23T07:26:11;96160.69;;;12.92;100.00
14242;BME280;7205;50.864;12.766;2024-03-23T07:28:37;96160.16;;;13.01;100.00
14242;BME280;7205;50.864;12.766;2024-03-23T07:31:10;96141.53;;;13.08;100.00
14242;BME280;7205;50.864;12.766;2024-03-23T07:33:37;96138.06;;;13.19;100.00
14242;BME280;7205;50.864;12.766;2024-03-23T07:36:05;96128.19;;;13.26;100.00
14242;BME280;7205;50.864;12.766;2024-03-23T07:38:31;96133.03;;;13.29;100.00
14242;BME280;7205;50.864;12.766;2024-03-23T07:41:05;96140.16;;;13.28;100.00
14242;BME280;7205;50.864;12.766;2024-03-23T07:43:31;96141.78;;;13.29;100.00
14242;BME280;7205;50.864;12.766;2024-03-23T07:45:57;96148.00;;;13.35;100.00
14242;BME280;7205;50.864;12.766;2024-03-23T07:48:25;96131.19;;;13.41;100.00
14242;BME280;7205;50.864;12.766;2024-03-23T07:51:08;96126.13;;;13.51;100.00
14242;BME280;7205;50.864;12.766;2024-03-23T07:53:35;96123.72;;;13.61;100.00
14242;BME280;7205;50.864;12.766;2024-03-23T07:56:04;96121.16;;;13.66;100.00
14242;BME280;7205;50.864;12.766;2024-03-23T07:58:30;96108.81;;;13.71;100.00
14242;BME280;7205;50.864;12.766;2024-03-23T08:01:03;96104.44;;;13.77;100.00
14242;BME280;7205;50.864;12.766;2024-03-23T08:03:31;96100.03;;;13.82;100.00
14242;BME280;7205;50.864;12.766;2024-03-23T08:05:57;96109.94;;;13.87;100.00
14242;BME280;7205;50.864;12.766;2024-03-23T08:08:23;96120.78;;;13.85;100.00
14242;BME280;7205;50.864;12.766;2024-03-23T08:10:50;96130.34;;;13.86;100.00
14242;BME280;7205;50.864;12.766;2024-03-23T08:13:16;96133.13;;;13.92;100.00
14242;BME280;7205;50.864;12.766;2024-03-23T08:15:43;96143.06;;;13.96;100.00
14242;BME280;7205;50.864;12.766;2024-03-23T08:18:11;96136.00;;;13.90;100.00
14242;BME280;7205;50.864;12.766;2024-03-23T08:20:38;96137.66;;;13.79;100.00
14242;BME280;7205;50.864;12.766;2024-03-23T08:23:06;96134.19;;;13.67;100.00
14242;BME280;7205;50.864;12.766;2024-03-23T08:25:31;96141.91;;;13.57;100.00
14242;BME280;7205;50.864;12.766;2024-03-23T08:27:58;96133.16;;;13.45;100.00
14242;BME280;7205;50.864;12.766;2024-03-23T08:30:24;96142.03;;;13.39;100.00
14242;BME280;7205;50.864;12.766;2024-03-23T08:32:52;96147.66;;;13.31;100.00
14242;BME280;7205;50.864;12.766;2024-03-23T08:35:18;96140.03;;;13.23;100.00
14242;BME280;7205;50.864;12.766;2024-03-23T08:37:50;96137.72;;;13.15;100.00
14242;BME280;7205;50.864;12.766;2024-03-23T08:40:22;96142.66;;;13.12;100.00
14242;BME280;7205;50.864;12.766;2024-03-23T08:42:49;96144.97;;;13.08;100.00
14242;BME280;7205;50.864;12.766;2024-03-23T08:45:15;96169.09;;;13.00;100.00
14242;BME280;7205;50.864;12.766;2024-03-23T08:47:42;96215.31;;;12.75;100.00
14242;BME280;7205;50.864;12.766;2024-03-23T08:50:09;96245.63;;;12.24;100.00
14242;BME280;7205;50.864;12.766;2024-03-23T08:52:36;96243.13;;;11.62;100.00
14242;BME280;7205;50.864;12.766;2024-03-23T08:55:04;96267.34;;;10.97;100.00
14242;BME280;7205;50.864;12.766;2024-03-23T08:57:31;96286.06;;;10.32;100.00
14242;BME280;7205;50.864;12.766;2024-03-23T08:59:58;96306.19;;;9.67;100.00
14242;BME280;7205;50.864;12.766;2024-03-23T09:02:25;96327.19;;;9.22;100.00
14242;BME280;7205;50.864;12.766;2024-03-23T09:04:51;96359.66;;;8.81;100.00
14242;BME280;7205;50.864;12.766;2024-03-23T09:07:20;96371.31;;;8.32;100.00
14242;BME280;7205;50.864;12.766;2024-03-23T09:09:46;96392.63;;;7.95;100.00
14242;BME280;7205;50.864;12.766;2024-03-23T09:12:14;96417.81;;;7.61;100.00
14242;BME280;7205;50.864;12.766;2024-03-23T09:14:39;96440.94;;;7.37;100.00
14242;BME280;7205;50.864;12.766;2024-03-23T09:17:06;96453.66;;;7.19;100.00
14242;BME280;7205;50.864;12.766;2024-03-23T09:19:32;96455.22;;;6.99;100.00
14242;BME280;7205;50.864;12.766;2024-03-23T09:21:58;96484.19;;;6.76;100.00
14242;BME280;7205;50.864;12.766;2024-03-23T09:24:24;96471.41;;;6.59;100.00
14242;BME280;7205;50.864;12.766;2024-03-23T09:26:51;96476.72;;;6.36;100.00
14242;BME280;7205;50.864;12.766;2024-03-23T09:29:19;96488.88;;;6.29;100.00
14242;BME280;7205;50.864;12.766;2024-03-23T09:31:45;96495.53;;;6.17;100.00
14242;BME280;7205;50.864;12.766;2024-03-23T09:34:11;96484.28;;;6.08;100.00
14242;BME280;7205;50.864;12.766;2024-03-23T09:36:38;96506.63;;;6.04;100.00
14242;BME280;7205;50.864;12.766;2024-03-23T09:39:04;96537.41;;;6.02;100.00
14242;BME280;7205;50.864;12.766;2024-03-23T09:41:31;96530.69;;;6.00;100.00
14242;BME280;7205;50.864;12.766;2024-03-23T09:43:56;96534.38;;;5.91;100.00
14242;BME280;7205;50.864;12.766;2024-03-23T09:46:24;96537.16;;;5.89;100.00
14242;BME280;7205;50.864;12.766;2024-03-23T09:48:50;96560.13;;;5.79;100.00
14242;BME280;7205;50.864;12.766;2024-03-23T09:51:17;96577.44;;;5.80;100.00
14242;BME280;7205;50.864;12.766;2024-03-23T09:53:42;96579.25;;;5.80;100.00
14242;BME280;7205;50.864;12.766;2024-03-23T09:56:09;96583.69;;;5.71;100.00
14242;BME280;7205;50.864;12.766;2024-03-23T09:58:36;96587.97;;;5.72;100.00
14242;BME280;7205;50.864;12.766;2024-03-23T10:01:03;96603.38;;;5.67;100.00
14242;BME280;7205;50.864;12.766;2024-03-23T10:03:42;96611.41;;;5.66;100.00
14242;BME280;7205;50.864;12.766;2024-03-23T10:06:14;96622.53;;;5.60;100.00
14242;BME280;7205;50.864;12.766;2024-03-23T10:08:47;96611.56;;;5.64;100.00
14242;BME280;7205;50.864;12.766;2024-03-23T10:11:22;96636.59;;;5.67;100.00
14242;BME280;7205;50.864;12.766;2024-03-23T10:13:51;96649.84;;;5.65;100.00
14242;BME280;7205;50.864;12.766;2024-03-23T10:16:21;96658.53;;;5.66;100.00
14242;BME280;7205;50.864;12.766;2024-03-23T10:18:49;96670.78;;;5.65;100.00
14242;BME280;7205;50.864;12.766;2024-03-23T10:21:16;96670.50;;;5.60;100.00
14242;BME280;7205;50.864;12.766;2024-03-23T10:23:48;96688.63;;;5.62;100.00
14242;BME280;7205;50.864;12.766;2024-03-23T10:26:18;96691.75;;;5.65;100.00
14242;BME280;7205;50.864;12.766;2024-03-23T10:28:52;96696.16;;;5.65;100.00
14242;BME280;7205;50.864;12.766;2024-03-23T10:31:20;96697.16;;;5.64;100.00
14242;BME280;7205;50.864;12.766;2024-03-23T10:33:46;96705.50;;;5.59;100.00
14242;BME280;7205;50.864;12.766;2024-03-23T10:36:14;96714.84;;;5.54;100.00
14242;BME280;7205;50.864;12.766;2024-03-23T10:38:41;96717.47;;;5.54;100.00
14242;BME280;7205;50.864;12.766;2024-03-23T10:41:08;96715.34;;;5.57;100.00
14242;BME280;7205;50.864;12.766;2024-03-23T10:43:38;96717.44;;;5.62;100.00
14242;BME280;7205;50.864;12.766;2024-03-23T10:46:06;96726.28;;;5.69;100.00
14242;BME280;7205;50.864;12.766;2024-03-23T10:48:32;96734.94;;;5.69;100.00
14242;BME280;7205;50.864;12.766;2024-03-23T10:50:59;96719.38;;;5.68;100.00
14242;BME280;7205;50.864;12.766;2024-03-23T10:53:28;96738.19;;;5.71;100.00
14242;BME280;7205;50.864;12.766;2024-03-23T10:55:55;96734.59;;;5.72;100.00
14242;BME280;7205;50.864;12.766;2024-03-23T10:58:24;96733.44;;;5.75;100.00
14242;BME280;7205;50.864;12.766;2024-03-23T11:00:53;96733.09;;;5.78;100.00
14242;BME280;7205;50.864;12.766;2024-03-23T11:03:34;96746.53;;;5.91;100.00
14242;BME280;7205;50.864;12.766;2024-03-23T11:06:02;96742.59;;;5.95;100.00
14242;BME280;7205;50.864;12.766;2024-03-23T11:08:40;96741.59;;;6.04;100.00
14242;BME280;7205;50.864;12.766;2024-03-23T11:11:15;96748.63;;;6.03;100.00
14242;BME280;7205;50.864;12.766;2024-03-23T11:13:42;96769.56;;;6.03;100.00
14242;BME280;7205;50.864;12.766;2024-03-23T11:16:16;96758.75;;;6.06;100.00
14242;BME280;7205;50.864;12.766;2024-03-23T11:18:42;96760.75;;;6.04;100.00
14242;BME280;7205;50.864;12.766;2024-03-23T11:21:10;96763.03;;;6.07;100.00
14242;BME280;7205;50.864;12.766;2024-03-23T11:23:36;96769.38;;;6.13;100.00
14242;BME280;7205;50.864;12.766;2024-03-23T11:26:28;96767.94;;;6.10;100.00
14242;BME280;7205;50.864;12.766;2024-03-23T11:29:31;96759.72;;;6.13;100.00
14242;BME280;7205;50.864;12.766;2024-03-23T11:32:27;96780.00;;;6.27;100.00
14242;BME280;7205;50.864;12.766;2024-03-23T11:35:00;96769.50;;;6.27;100.00
14242;BME280;7205;50.864;12.766;2024-03-23T11:41:10;96765.53;;;6.31;100.00
14242;BME280;7205;50.864;12.766;2024-03-23T11:55:06;96767.53;;;6.60;100.00
14242;BME280;7205;50.864;12.766;2024-03-23T11:57:33;96757.34;;;6.65;100.00
14242;BME280;7205;50.864;12.766;2024-03-23T11:59:59;96762.53;;;6.73;100.00
14242;BME280;7205;50.864;12.766;2024-03-23T12:02:26;96757.28;;;6.73;100.00
14242;BME280;7205;50.864;12.766;2024-03-23T12:04:52;96772.34;;;6.79;100.00
14242;BME280;7205;50.864;12.766;2024-03-23T12:07:21;96768.91;;;6.79;100.00
14242;BME280;7205;50.864;12.766;2024-03-23T12:09:49;96770.38;;;6.81;100.00
14242;BME280;7205;50.864;12.766;2024-03-23T12:12:28;96782.50;;;6.82;100.00
14242;BME280;7205;50.864;12.766;2024-03-23T12:15:01;96783.69;;;6.80;100.00
14242;BME280;7205;50.864;12.766;2024-03-23T12:17:29;96778.28;;;6.73;100.00
14242;BME280;7205;50.864;12.766;2024-03-23T12:19:55;96779.16;;;6.66;100.00
14242;BME280;7205;50.864;12.766;2024-03-23T12:22:23;96779.03;;;6.59;100.00
14242;BME280;7205;50.864;12.766;2024-03-23T12:24:49;96777.06;;;6.53;100.00
14242;BME280;7205;50.864;12.766;2024-03-23T12:27:24;96771.69;;;6.47;100.00
14242;BME280;7205;50.864;12.766;2024-03-23T12:44:33;96802.19;;;6.48;100.00
14242;BME280;7205;50.864;12.766;2024-03-23T12:47:24;96792.69;;;6.77;100.00
14242;BME280;7205;50.864;12.766;2024-03-23T12:52:46;96778.25;;;7.04;100.00
14242;BME280;7205;50.864;12.766;2024-03-23T12:55:12;96784.28;;;7.12;100.00
14242;BME280;7205;50.864;12.766;2024-03-23T12:57:44;96776.03;;;7.15;100.00
14242;BME280;7205;50.864;12.766;2024-03-23T13:00:34;96774.00;;;7.25;100.00
14242;BME280;7205;50.864;12.766;2024-03-23T13:03:07;96765.53;;;7.38;100.00
14242;BME280;7205;50.864;12.766;2024-03-23T13:05:57;96774.28;;;7.53;100.00
14242;BME280;7205;50.864;12.766;2024-03-23T13:08:33;96749.28;;;7.57;100.00
14242;BME280;7205;50.864;12.766;2024-03-23T13:11:15;96760.16;;;7.68;100.00
14242;BME280;7205;50.864;12.766;2024-03-23T13:24:33;96754.56;;;7.72;100.00
14242;BME280;7205;50.864;12.766;2024-03-23T13:27:00;96741.63;;;7.70;100.00
14242;BME280;7205;50.864;12.766;2024-03-23T13:29:30;96733.88;;;7.68;100.00
14242;BME280;7205;50.864;12.766;2024-03-23T13:31:55;96733.56;;;7.72;100.00
14242;BME280;7205;50.864;12.766;2024-03-23T13:34:22;96736.91;;;7.80;100.00
14242;BME280;7205;50.864;12.766;2024-03-23T13:36:49;96734.28;;;7.95;100.00
14242;BME280;7205;50.864;12.766;2024-03-23T13:39:17;96725.94;;;8.20;100.00
14242;BME280;7205;50.864;12.766;2024-03-23T13:41:44;96716.69;;;8.53;100.00
14242;BME280;7205;50.864;12.766;2024-03-23T13:44:11;96717.41;;;8.83;100.00
14242;BME280;7205;50.864;12.766;2024-03-23T13:46:37;96712.81;;;9.13;100.00
14242;BME280;7205;50.864;12.766;2024-03-23T13:49:04;96714.44;;;9.35;100.00
14242;BME280;7205;50.864;12.766;2024-03-23T13:51:30;96706.63;;;9.48;100.00
14242;BME280;7205;50.864;12.766;2024-03-23T13:53:58;96697.75;;;9.49;100.00
14242;BME280;7205;50.864;12.766;2024-03-23T13:56:40;96689.59;;;9.44;94.68
14242;BME280;7205;50.864;12.766;2024-03-23T13:59:22;96688.44;;;9.25;89.44
14242;BME280;7205;50.864;12.766;2024-03-23T14:02:34;96685.69;;;9.12;84.13
14242;BME280;7205;50.864;12.766;2024-03-23T14:05:21;96680.38;;;9.06;85.51
14242;BME280;7205;50.864;12.766;2024-03-23T14:07:52;96681.25;;;8.92;82.82
14242;BME280;7205;50.864;12.766;2024-03-23T14:10:21;96692.03;;;8.97;84.13
14242;BME280;7205;50.864;12.766;2024-03-23T14:12:56;96703.06;;;9.07;86.02
14242;BME280;7205;50.864;12.766;2024-03-23T14:15:28;96693.41;;;9.14;84.40
14242;BME280;7205;50.864;12.766;2024-03-23T14:18:01;96680.72;;;9.24;81.62
14242;BME280;7205;50.864;12.766;2024-03-23T14:20:28;96702.09;;;9.35;80.28
14242;BME280;7205;50.864;12.766;2024-03-23T14:22:54;96703.16;;;9.41;79.01
14242;BME280;7205;50.864;12.766;2024-03-23T14:25:22;96695.28;;;9.47;76.32
14242;BME280;7205;50.864;12.766;2024-03-23T14:27:54;96703.84;;;9.49;74.46
14242;BME280;7205;50.864;12.766;2024-03-23T14:30:28;96696.53;;;9.51;74.96
14242;BME280;7205;50.864;12.766;2024-03-23T14:32:53;96690.22;;;9.46;74.66
14242;BME280;7205;50.864;12.766;2024-03-23T14:35:20;96687.19;;;9.49;73.88
14242;BME280;7205;50.864;12.766;2024-03-23T14:37:46;96690.06;;;9.54;73.03